createdAt,value
2022-10-20T00:01:05.387Z,2.95
2022-10-20T00:03:32.510Z,2.75
2022-10-20T00:06:08.679Z,2.70
2022-10-20T00:08:36.235Z,2.90
2022-10-20T00:11:03.642Z,3.35
2022-10-20T00:13:31.178Z,2.55
2022-10-20T00:15:59.670Z,2.70
2022-10-20T00:18:27.674Z,3.05
2022-10-20T00:20:55.547Z,2.95
2022-10-20T00:23:23.225Z,2.50
2022-10-20T00:26:00.222Z,2.80
2022-10-20T00:28:27.430Z,3.33
2022-10-20T00:30:56.774Z,3.08
2022-10-20T00:33:25.135Z,2.95
2022-10-20T00:35:52.631Z,2.92
2022-10-20T00:38:19.929Z,2.67
2022-10-20T00:40:47.187Z,2.90
2022-10-20T00:43:16.548Z,2.45
2022-10-20T00:45:50.343Z,3.10
2022-10-20T00:48:23.180Z,2.97
2022-10-20T00:50:53.064Z,2.75
2022-10-20T00:53:22.778Z,3.08
2022-10-20T00:55:52.277Z,2.70
2022-10-20T00:58:19.894Z,2.33
2022-10-20T01:00:50.953Z,2.42
2022-10-20T01:03:26.145Z,2.67
2022-10-20T01:05:53.369Z,2.58
2022-10-20T01:08:20.929Z,2.63
2022-10-20T01:11:13.569Z,2.78
2022-10-20T01:14:01.601Z,3.28
2022-10-20T01:16:44.758Z,2.58
2022-10-20T01:19:50.240Z,3.08
2022-10-20T01:22:26.427Z,3.53
2022-10-20T01:24:54.661Z,2.78
2022-10-20T01:27:32.569Z,2.80
2022-10-20T01:30:07.674Z,2.97
2022-10-20T01:32:52.155Z,2.55
2022-10-20T01:35:27.768Z,2.78
2022-10-20T01:38:13.951Z,2.70
2022-10-20T01:40:55.439Z,2.78
2022-10-20T01:43:26.325Z,3.10
2022-10-20T01:45:55.426Z,3.00
2022-10-20T01:48:26.223Z,2.70
2022-10-20T01:50:53.459Z,3.05
2022-10-20T01:53:20.979Z,3.40
2022-10-20T01:55:52.810Z,2.83
2022-10-20T01:58:41.326Z,3.28
2022-10-20T02:01:48.257Z,3.10
2022-10-20T02:04:15.796Z,3.00
2022-10-20T02:06:55.020Z,3.17
2022-10-20T02:09:48.330Z,3.00
2022-10-20T02:12:22.316Z,3.20
2022-10-20T02:14:50.617Z,3.13
2022-10-20T02:17:20.942Z,2.85
2022-10-20T02:19:51.921Z,3.17
2022-10-20T02:22:21.529Z,3.13
2022-10-20T02:24:49.389Z,2.97
2022-10-20T02:27:24.721Z,3.47
2022-10-20T02:30:01.233Z,3.45
2022-10-20T02:32:30.470Z,3.40
2022-10-20T02:34:58.676Z,2.85
2022-10-20T02:37:28.385Z,3.33
2022-10-20T02:39:55.629Z,3.45
2022-10-20T02:42:22.963Z,3.47
2022-10-20T02:44:50.668Z,3.05
2022-10-20T02:47:20.748Z,3.30
2022-10-20T02:49:48.226Z,3.47
2022-10-20T02:52:15.773Z,3.20
2022-10-20T02:54:43.077Z,2.83
2022-10-20T02:57:10.358Z,3.00
2022-10-20T02:59:37.826Z,3.40
2022-10-20T03:02:05.048Z,3.25
2022-10-20T03:04:32.634Z,3.55
2022-10-20T03:06:59.704Z,3.75
2022-10-20T03:09:27.676Z,4.45
2022-10-20T03:11:54.729Z,3.35
2022-10-20T03:14:22.564Z,3.42
2022-10-20T03:16:49.632Z,3.45
2022-10-20T03:19:17.152Z,3.58
2022-10-20T03:21:44.362Z,3.17
2022-10-20T03:24:12.116Z,3.13
2022-10-20T03:26:39.217Z,3.60
2022-10-20T03:29:06.456Z,3.30
2022-10-20T03:31:34.245Z,3.10
2022-10-20T03:34:01.396Z,3.33
2022-10-20T03:36:28.754Z,3.30
2022-10-20T03:38:55.999Z,3.45
2022-10-20T03:41:23.384Z,3.90
2022-10-20T03:43:50.565Z,3.30
2022-10-20T03:46:18.224Z,3.20
2022-10-20T03:48:45.500Z,3.33
2022-10-20T03:51:14.239Z,3.40
2022-10-20T03:53:41.893Z,4.00
2022-10-20T03:56:12.575Z,3.55
2022-10-20T03:58:39.688Z,3.80
2022-10-20T04:01:09.402Z,4.35
2022-10-20T04:03:36.863Z,3.80
2022-10-20T04:06:04.459Z,3.80
2022-10-20T04:08:31.721Z,4.18
2022-10-20T04:10:59.149Z,4.22
2022-10-20T04:13:26.341Z,4.07
2022-10-20T04:15:53.497Z,4.07
2022-10-20T04:18:20.707Z,3.60
2022-10-20T04:20:48.669Z,3.70
2022-10-20T04:23:15.944Z,3.40
2022-10-20T04:25:47.873Z,3.65
2022-10-20T04:28:17.013Z,4.07
2022-10-20T04:30:45.282Z,3.92
2022-10-20T04:33:13.540Z,4.15
2022-10-20T04:35:41.030Z,4.00
2022-10-20T04:38:08.731Z,4.65
2022-10-20T04:40:36.251Z,3.85
2022-10-20T04:43:03.964Z,3.80
2022-10-20T04:45:31.523Z,3.80
2022-10-20T04:47:58.936Z,4.30
2022-10-20T04:50:26.247Z,4.00
2022-10-20T04:53:07.863Z,4.10
2022-10-20T04:55:35.613Z,3.50
2022-10-20T04:58:03.155Z,3.65
2022-10-20T05:00:30.395Z,3.70
2022-10-20T05:02:58.295Z,3.65
2022-10-20T05:05:25.477Z,3.88
2022-10-20T05:07:52.960Z,4.07
2022-10-20T05:10:20.863Z,4.03
2022-10-20T05:12:48.454Z,4.25
2022-10-20T05:15:15.761Z,3.92
2022-10-20T05:17:43.304Z,4.10
2022-10-20T05:20:10.724Z,3.70
2022-10-20T05:22:38.727Z,3.78
2022-10-20T05:25:34.975Z,3.72
2022-10-20T05:27:53.817Z,3.70
2022-10-20T05:30:20.916Z,4.55
2022-10-20T05:32:48.393Z,4.18
2022-10-20T05:35:15.573Z,3.55
2022-10-20T05:37:43.131Z,3.85
2022-10-20T05:40:11.438Z,4.03
2022-10-20T05:42:39.447Z,4.25
2022-10-20T05:45:07.748Z,3.97
2022-10-20T05:47:35.384Z,4.22
2022-10-20T05:50:02.944Z,4.03
2022-10-20T05:52:30.568Z,4.32
2022-10-20T05:54:59.627Z,4.80
2022-10-20T05:57:32.705Z,3.95
2022-10-20T06:00:02.009Z,4.18
2022-10-20T06:02:38.954Z,4.45
2022-10-20T06:05:07.874Z,4.38
2022-10-20T06:07:37.668Z,4.57
2022-10-20T06:10:05.402Z,3.90
2022-10-20T06:12:34.038Z,5.15
2022-10-20T06:17:35.221Z,4.72
2022-10-20T06:20:02.680Z,4.75
2022-10-20T06:22:31.249Z,4.20
2022-10-20T06:25:01.071Z,5.05
2022-10-20T06:27:28.551Z,4.75
2022-10-20T06:29:56.172Z,4.55
2022-10-20T06:32:23.898Z,4.60
2022-10-20T06:34:51.436Z,4.53
2022-10-20T06:37:19.133Z,5.07
2022-10-20T06:39:46.623Z,4.55
2022-10-20T06:42:14.229Z,4.30
2022-10-20T06:44:45.756Z,4.13
2022-10-20T06:47:12.932Z,4.68
2022-10-20T06:49:40.058Z,4.03
2022-10-20T06:52:07.379Z,4.10
2022-10-20T06:54:35.604Z,4.13
2022-10-20T06:57:02.869Z,4.13
2022-10-20T06:59:30.454Z,3.85
2022-10-20T07:01:58.118Z,4.10
2022-10-20T07:04:25.646Z,4.05
2022-10-20T07:06:53.066Z,3.90
2022-10-20T07:09:21.138Z,4.22
2022-10-20T07:11:53.802Z,4.53
2022-10-20T07:14:21.070Z,4.93
2022-10-20T07:16:48.654Z,4.85
2022-10-20T07:19:15.960Z,5.63
2022-10-20T07:21:45.697Z,4.93
2022-10-20T07:24:13.743Z,4.82
2022-10-20T07:26:41.857Z,4.45
2022-10-20T07:29:10.700Z,3.72
2022-10-20T07:31:41.505Z,4.15
2022-10-20T07:34:24.873Z,3.75
2022-10-20T07:36:53.518Z,4.22
2022-10-20T07:39:22.149Z,4.22
2022-10-20T07:41:49.824Z,3.85
2022-10-20T07:44:18.108Z,3.92
2022-10-20T07:46:45.485Z,3.83
2022-10-20T07:52:00.571Z,3.70
2022-10-20T07:54:27.978Z,3.55
2022-10-20T07:56:55.261Z,3.65
2022-10-20T07:59:22.623Z,3.55
2022-10-20T08:01:51.223Z,3.80
2022-10-20T08:04:19.847Z,4.13
2022-10-20T08:06:47.388Z,3.33
2022-10-20T08:09:14.840Z,3.22
2022-10-20T08:11:43.525Z,3.45
2022-10-20T08:14:11.083Z,3.58
2022-10-20T08:16:44.176Z,3.13
2022-10-20T08:21:56.317Z,2.90
2022-10-20T08:24:23.839Z,3.50
2022-10-20T08:26:51.921Z,3.60
2022-10-20T08:29:19.296Z,3.10
2022-10-20T08:31:46.778Z,3.67
2022-10-20T08:34:14.499Z,3.40
2022-10-20T08:36:41.801Z,2.80
2022-10-20T08:39:09.267Z,3.30
2022-10-20T08:42:07.930Z,3.80
2022-10-20T08:44:31.735Z,3.72
2022-10-20T08:47:02.193Z,4.05
2022-10-20T08:49:33.594Z,3.80
2022-10-20T08:52:02.472Z,3.78
2022-10-20T08:54:32.705Z,3.05
2022-10-20T08:57:00.059Z,3.15
2022-10-20T08:59:34.008Z,3.38
2022-10-20T09:02:02.747Z,4.22
2022-10-20T09:04:35.575Z,3.20
2022-10-20T09:07:11.013Z,3.15
2022-10-20T09:09:39.744Z,3.70
2022-10-20T09:12:12.557Z,3.10
2022-10-20T09:14:39.897Z,3.47
2022-10-20T09:17:17.200Z,3.30
2022-10-20T09:19:54.682Z,3.10
2022-10-20T09:22:22.975Z,2.70
2022-10-20T09:24:55.417Z,2.20
2022-10-20T09:27:24.393Z,2.65
2022-10-20T09:29:51.964Z,1.90
2022-10-20T09:32:48.179Z,2.25
2022-10-20T09:35:19.270Z,2.17
2022-10-20T09:38:11.629Z,2.17
2022-10-20T09:41:07.083Z,2.00
2022-10-20T09:43:34.751Z,1.80
2022-10-20T09:46:07.587Z,2.08
2022-10-20T09:48:39.623Z,1.98
2022-10-20T09:51:15.920Z,1.88
2022-10-20T09:54:00.259Z,2.22
2022-10-20T09:56:30.232Z,2.33
2022-10-20T09:58:59.547Z,2.75
2022-10-20T10:01:27.050Z,2.53
2022-10-20T10:03:59.901Z,3.25
2022-10-20T10:06:27.694Z,2.88
2022-10-20T10:08:56.345Z,2.70
2022-10-20T10:11:30.525Z,3.10
2022-10-20T10:13:58.135Z,3.70
2022-10-20T10:16:25.864Z,2.97
2022-10-20T10:19:00.966Z,3.67
2022-10-20T10:21:30.417Z,3.80
2022-10-20T10:24:01.455Z,3.33
2022-10-20T10:26:52.294Z,3.63
2022-10-20T10:29:34.065Z,3.60
2022-10-20T10:32:04.616Z,3.92
2022-10-20T10:34:40.503Z,3.63
2022-10-20T10:37:13.008Z,3.20
2022-10-20T10:39:41.004Z,3.70
2022-10-20T10:42:15.359Z,3.08
2022-10-20T10:44:43.576Z,3.58
2022-10-20T10:47:32.496Z,3.25
2022-10-20T10:50:22.493Z,3.30
2022-10-20T10:53:04.117Z,3.25
2022-10-20T10:55:49.025Z,2.90
2022-10-20T10:58:45.312Z,2.97
2022-10-20T11:01:35.859Z,3.40
2022-10-20T11:04:14.045Z,3.50
2022-10-20T11:07:06.841Z,3.28
2022-10-20T11:09:45.615Z,3.53
2022-10-20T11:12:17.459Z,3.45
2022-10-20T11:15:00.941Z,3.85
2022-10-20T11:18:07.890Z,3.88
2022-10-20T11:20:40.464Z,4.00
2022-10-20T11:23:28.637Z,4.13
2022-10-20T11:26:33.289Z,3.95
2022-10-20T11:29:02.539Z,3.67
2022-10-20T11:31:36.812Z,4.20
2022-10-20T11:34:22.061Z,4.78
2022-10-20T11:36:57.329Z,4.55
2022-10-20T11:39:46.308Z,4.60
2022-10-20T11:42:23.166Z,4.05
2022-10-20T11:44:52.384Z,4.50
2022-10-20T11:47:27.749Z,4.70
2022-10-20T11:49:55.521Z,4.50
2022-10-20T11:53:00.839Z,3.90
2022-10-20T11:55:47.944Z,4.10
2022-10-20T11:58:17.310Z,4.75
2022-10-20T12:01:18.247Z,4.25
2022-10-20T12:03:56.804Z,4.20
2022-10-20T12:06:27.466Z,4.05
2022-10-20T12:09:01.387Z,3.95
2022-10-20T12:11:57.482Z,4.43
2022-10-20T12:14:37.030Z,4.43
2022-10-20T12:17:44.335Z,4.18
2022-10-20T12:20:27.776Z,4.57
2022-10-20T12:22:59.428Z,5.32
2022-10-20T12:25:26.754Z,4.55
2022-10-20T12:28:21.470Z,4.40
2022-10-20T12:30:59.421Z,5.05
2022-10-20T12:33:49.845Z,5.10
2022-10-20T12:36:16.973Z,4.30
2022-10-20T12:39:13.474Z,4.60
2022-10-20T12:41:59.633Z,4.75
2022-10-20T12:44:31.150Z,4.40
2022-10-20T12:47:05.513Z,4.72
2022-10-20T12:49:37.716Z,4.47
2022-10-20T12:52:09.396Z,4.65
2022-10-20T12:54:48.464Z,4.10
2022-10-20T12:57:30.857Z,4.18
2022-10-20T12:59:58.066Z,4.13
2022-10-20T13:02:25.186Z,4.47
2022-10-20T13:05:04.367Z,4.22
2022-10-20T13:07:48.796Z,3.97
2022-10-20T13:10:34.968Z,3.90
2022-10-20T13:13:02.138Z,4.00
2022-10-20T13:15:39.186Z,3.72
2022-10-20T13:18:20.060Z,4.38
2022-10-20T13:21:10.009Z,3.67
2022-10-20T13:23:42.392Z,3.90
2022-10-20T13:26:31.806Z,4.18
2022-10-20T13:29:01.700Z,4.00
2022-10-20T13:31:35.540Z,3.53
2022-10-20T13:34:07.503Z,3.80
2022-10-20T13:37:19.160Z,4.28
2022-10-20T13:40:12.234Z,3.70
2022-10-20T13:42:59.393Z,4.07
2022-10-20T13:45:47.572Z,4.32
2022-10-20T13:48:31.935Z,5.15
2022-10-20T13:51:04.055Z,4.07
2022-10-20T13:53:38.647Z,4.60
2022-10-20T13:56:19.581Z,3.78
2022-10-20T13:59:05.321Z,3.70
2022-10-20T14:01:36.419Z,3.72
2022-10-20T14:04:17.639Z,3.97
2022-10-20T14:06:47.203Z,3.78
2022-10-20T14:09:19.349Z,4.20
2022-10-20T14:11:50.619Z,4.38
2022-10-20T14:14:22.975Z,4.03
2022-10-20T14:16:54.507Z,4.15
2022-10-20T14:19:26.268Z,3.90
2022-10-20T14:21:56.357Z,4.38
2022-10-20T14:24:26.794Z,4.43
2022-10-20T14:26:55.965Z,4.13
2022-10-20T14:29:25.625Z,4.30
2022-10-20T14:31:53.377Z,4.40
2022-10-20T14:34:23.970Z,4.28
2022-10-20T14:36:53.922Z,4.22
2022-10-20T14:39:31.783Z,4.60
2022-10-20T14:42:00.937Z,4.40
2022-10-20T14:44:31.805Z,4.70
2022-10-20T14:47:05.364Z,5.28
2022-10-20T14:49:39.171Z,4.55
2022-10-20T14:52:21.717Z,4.40
2022-10-20T14:54:51.501Z,4.50
2022-10-20T14:57:19.466Z,5.25
2022-10-20T15:00:23.114Z,4.53
2022-10-20T15:02:56.738Z,4.80
2022-10-20T15:05:36.170Z,4.70
2022-10-20T15:08:26.191Z,4.82
2022-10-20T15:10:53.839Z,5.45
2022-10-20T15:13:30.875Z,5.30
2022-10-20T15:16:00.770Z,5.50
2022-10-20T15:18:29.973Z,5.28
2022-10-20T15:20:57.621Z,5.13
2022-10-20T15:23:27.768Z,5.07
2022-10-20T15:26:01.152Z,5.03
2022-10-20T15:28:34.623Z,4.93
2022-10-20T15:31:05.062Z,5.00
2022-10-20T15:33:32.509Z,5.28
2022-10-20T15:36:00.711Z,5.30
2022-10-20T15:38:28.661Z,5.15
2022-10-20T15:40:55.875Z,4.60
2022-10-20T15:43:25.730Z,5.03
2022-10-20T15:45:55.274Z,5.57
2022-10-20T15:48:26.079Z,4.90
2022-10-20T15:50:55.324Z,4.90
2022-10-20T15:53:22.752Z,4.82
2022-10-20T15:55:49.894Z,5.43
2022-10-20T15:58:17.414Z,5.55
2022-10-20T16:00:46.187Z,5.30
2022-10-20T16:03:18.185Z,4.88
2022-10-20T16:05:47.225Z,5.40
2022-10-20T16:10:47.116Z,5.47
2022-10-20T16:13:16.100Z,5.65
2022-10-20T16:15:43.309Z,5.18
2022-10-20T16:18:11.442Z,4.90
2022-10-20T16:20:38.682Z,5.05
2022-10-20T16:23:05.975Z,5.00
2022-10-20T16:25:33.049Z,5.35
2022-10-20T16:28:00.400Z,4.97
2022-10-20T16:30:28.056Z,5.07
2022-10-20T16:32:56.388Z,5.65
2022-10-20T16:35:23.600Z,5.18
2022-10-20T16:37:51.035Z,5.47
2022-10-20T16:40:18.273Z,6.07
2022-10-20T16:42:45.778Z,5.22
2022-10-20T16:45:13.305Z,5.45
2022-10-20T16:47:40.828Z,6.32
2022-10-20T16:50:08.528Z,5.70
2022-10-20T16:52:35.746Z,5.75
2022-10-20T16:55:02.972Z,5.72
2022-10-20T16:57:33.586Z,6.85
2022-10-20T17:00:01.309Z,8.20
2022-10-20T17:02:28.566Z,8.38
2022-10-20T17:04:55.716Z,8.48
2022-10-20T17:07:22.891Z,8.30
2022-10-20T17:09:50.173Z,7.72
2022-10-20T17:12:17.442Z,8.35
2022-10-20T17:14:44.875Z,7.45
2022-10-20T17:17:11.956Z,8.98
2022-10-20T17:19:41.194Z,8.75
2022-10-20T17:24:38.753Z,10.15
2022-10-20T17:27:05.957Z,9.90
2022-10-20T17:29:33.266Z,10.43
2022-10-20T17:32:00.384Z,10.18
2022-10-20T17:34:27.969Z,8.70
2022-10-20T17:36:55.436Z,8.05
2022-10-20T17:39:24.129Z,8.52
2022-10-20T17:41:51.758Z,8.15
2022-10-20T17:44:18.841Z,8.52
2022-10-20T17:46:46.131Z,8.13
2022-10-20T17:49:13.402Z,8.02
2022-10-20T17:51:40.703Z,8.00
2022-10-20T17:54:07.957Z,9.15
2022-10-20T17:56:37.285Z,7.72
2022-10-20T17:59:06.700Z,7.72
2022-10-20T18:01:36.704Z,8.75
2022-10-20T18:04:08.058Z,7.75
2022-10-20T18:06:36.305Z,10.02
2022-10-20T18:09:07.165Z,8.93
2022-10-20T18:11:46.857Z,9.30
2022-10-20T18:14:15.114Z,9.00
2022-10-20T18:16:43.023Z,8.38
2022-10-20T18:19:15.846Z,8.35
2022-10-20T18:21:43.045Z,7.78
2022-10-20T18:24:13.585Z,7.28
2022-10-20T18:26:41.501Z,8.25
2022-10-20T18:29:11.101Z,8.60
2022-10-20T18:31:44.129Z,7.82
2022-10-20T18:34:15.415Z,8.45
2022-10-20T18:36:50.187Z,8.75
2022-10-20T18:39:27.929Z,7.78
2022-10-20T18:42:03.145Z,9.20
2022-10-20T18:44:30.663Z,9.27
2022-10-20T18:46:59.829Z,8.70
2022-10-20T18:49:30.274Z,9.40
2022-10-20T18:52:05.348Z,8.75
2022-10-20T18:54:35.086Z,9.40
2022-10-20T18:57:05.389Z,10.00
2022-10-20T18:59:32.580Z,11.35
2022-10-20T19:01:59.674Z,9.60
2022-10-20T19:04:26.862Z,10.82
2022-10-20T19:06:53.999Z,11.73
2022-10-20T19:09:25.251Z,11.20
2022-10-20T19:11:54.677Z,12.07
2022-10-20T19:14:24.614Z,13.27
2022-10-20T19:16:53.379Z,12.18
2022-10-20T19:19:21.125Z,10.18
2022-10-20T19:21:48.303Z,11.52
2022-10-20T19:24:19.549Z,10.93
2022-10-20T19:27:24.550Z,11.30
2022-10-20T19:29:43.991Z,11.57
2022-10-20T19:32:12.334Z,11.93
2022-10-20T19:34:41.306Z,10.77
2022-10-20T19:37:09.173Z,10.63
2022-10-20T19:39:41.673Z,10.50
2022-10-20T19:42:09.987Z,10.95
2022-10-20T19:44:37.781Z,12.20
2022-10-20T19:47:06.194Z,11.25
2022-10-20T19:49:33.837Z,11.82
2022-10-20T19:52:04.456Z,12.27
2022-10-20T19:54:32.019Z,11.57
2022-10-20T19:56:59.348Z,13.50
2022-10-20T19:59:27.684Z,14.32
2022-10-20T20:01:54.851Z,13.48
2022-10-20T20:04:23.120Z,14.88
2022-10-20T20:06:52.637Z,15.57
2022-10-20T20:09:19.801Z,15.10
2022-10-20T20:11:47.252Z,14.63
2022-10-20T20:14:17.802Z,15.18
2022-10-20T20:16:46.371Z,16.02
2022-10-20T20:19:15.450Z,14.13
2022-10-20T20:21:42.755Z,15.82
2022-10-20T20:24:14.208Z,14.93
2022-10-20T20:26:41.767Z,15.75
2022-10-20T20:29:09.787Z,16.13
2022-10-20T20:31:36.998Z,16.08
2022-10-20T20:34:04.184Z,16.23
2022-10-20T20:36:31.385Z,16.17
2022-10-20T20:38:59.769Z,15.20
2022-10-20T20:41:30.291Z,14.48
2022-10-20T20:43:58.197Z,15.27
2022-10-20T20:46:29.349Z,15.65
2022-10-20T20:48:57.839Z,15.63
2022-10-20T20:51:28.928Z,15.25
2022-10-20T20:53:56.583Z,15.75
2022-10-20T20:56:26.875Z,15.88
2022-10-20T20:58:55.198Z,16.63
2022-10-20T21:01:27.813Z,14.38
2022-10-20T21:03:57.722Z,14.75
2022-10-20T21:06:33.738Z,13.70
2022-10-20T21:09:08.227Z,13.65
2022-10-20T21:11:36.282Z,14.32
2022-10-20T21:14:05.041Z,15.43
2022-10-20T21:16:34.550Z,15.23
2022-10-20T21:19:04.817Z,16.08
2022-10-20T21:21:34.608Z,16.73
2022-10-20T21:24:02.643Z,15.45
2022-10-20T21:26:30.624Z,15.13
2022-10-20T21:28:58.720Z,14.38
2022-10-20T21:31:27.427Z,13.93
2022-10-20T21:33:56.851Z,15.20
2022-10-20T21:36:25.202Z,15.30
2022-10-20T21:38:53.015Z,15.82
2022-10-20T21:41:22.455Z,15.77
2022-10-20T21:43:52.923Z,15.95
2022-10-20T21:46:25.224Z,16.50
2022-10-20T21:48:55.506Z,18.67
2022-10-20T21:51:25.742Z,17.83
2022-10-20T21:53:57.824Z,18.02
2022-10-20T21:56:25.687Z,16.02
2022-10-20T21:58:54.007Z,16.75
2022-10-20T22:01:23.762Z,17.15
2022-10-20T22:03:52.538Z,19.45
2022-10-20T22:06:21.791Z,18.65
2022-10-20T22:08:50.891Z,18.67
2022-10-20T22:11:21.753Z,18.63
2022-10-20T22:13:49.646Z,17.95
2022-10-20T22:16:20.071Z,18.50
2022-10-20T22:18:47.303Z,18.50
2022-10-20T22:21:17.514Z,20.20
2022-10-20T22:23:45.450Z,18.75
2022-10-20T22:26:12.893Z,20.35
2022-10-20T22:28:40.539Z,19.17
2022-10-20T22:31:07.882Z,18.38
2022-10-20T22:33:35.498Z,19.52
2022-10-20T22:36:03.887Z,18.08
2022-10-20T22:38:31.585Z,19.50
2022-10-20T22:41:00.071Z,19.45
2022-10-20T22:43:28.171Z,19.00
2022-10-20T22:45:55.475Z,19.30
2022-10-20T22:48:23.026Z,19.45
2022-10-20T22:50:50.521Z,18.88
2022-10-20T22:53:17.845Z,18.08
2022-10-20T22:55:45.415Z,18.10
2022-10-20T22:58:12.904Z,16.52
2022-10-20T23:00:40.600Z,16.75
2022-10-20T23:03:07.888Z,18.10
2022-10-20T23:05:35.229Z,17.20
2022-10-20T23:08:02.311Z,17.98
2022-10-20T23:10:29.481Z,18.75
2022-10-20T23:12:56.582Z,18.05
2022-10-20T23:15:23.722Z,17.40
2022-10-20T23:17:50.888Z,19.52
2022-10-20T23:20:18.269Z,17.92
2022-10-20T23:22:45.826Z,18.95
2022-10-20T23:25:13.003Z,18.65
2022-10-20T23:27:40.408Z,17.45
2022-10-20T23:30:08.129Z,19.95
2022-10-20T23:32:35.272Z,19.65
2022-10-20T23:35:02.505Z,18.45
2022-10-20T23:37:29.680Z,20.13
2022-10-20T23:39:56.915Z,19.92
2022-10-20T23:42:23.986Z,19.92
2022-10-20T23:44:51.103Z,19.75
2022-10-20T23:47:18.267Z,19.70
2022-10-20T23:49:45.355Z,20.15
2022-10-20T23:52:12.522Z,21.33
2022-10-20T23:54:39.627Z,21.08
2022-10-20T23:57:06.664Z,20.58
2022-10-20T23:59:33.943Z,22.35
